createdAt,value
2018-02-10T00:01:08.226Z,19.13
2018-02-10T00:03:35.715Z,18.63
2018-02-10T00:06:03.219Z,20.20
2018-02-10T00:08:30.698Z,20.27
2018-02-10T00:10:58.206Z,19.10
2018-02-10T00:13:26.455Z,20.17
2018-02-10T00:15:56.137Z,19.10
2018-02-10T00:18:23.650Z,22.10
2018-02-10T00:20:51.896Z,19.00
2018-02-10T00:23:19.372Z,19.40
2018-02-10T00:25:47.611Z,20.57
2018-02-10T00:28:15.094Z,18.70
2018-02-10T00:30:42.572Z,19.37
2018-02-10T00:33:10.819Z,18.83
2018-02-10T00:35:38.287Z,19.07
2018-02-10T00:38:05.765Z,18.53
2018-02-10T00:40:34.005Z,20.93
2018-02-10T00:43:01.490Z,20.47
2018-02-10T00:45:29.736Z,18.67
2018-02-10T00:47:57.238Z,19.00
2018-02-10T00:50:25.495Z,19.93
2018-02-10T00:52:53.037Z,18.83
2018-02-10T00:55:20.509Z,18.90
2018-02-10T00:57:47.995Z,22.10
2018-02-10T01:00:16.225Z,20.20
2018-02-10T01:02:43.706Z,17.97
2018-02-10T01:05:11.187Z,20.30
2018-02-10T01:07:39.439Z,20.13
2018-02-10T01:10:06.960Z,20.83
2018-02-10T01:12:34.427Z,21.37
2018-02-10T01:15:01.990Z,20.30
2018-02-10T01:17:29.467Z,22.03
2018-02-10T01:19:56.954Z,21.97
2018-02-10T01:22:25.225Z,22.90
2018-02-10T01:24:53.506Z,21.07
2018-02-10T01:27:21.753Z,20.73
2018-02-10T01:29:49.243Z,21.00
2018-02-10T01:32:17.481Z,20.37
2018-02-10T01:34:44.959Z,20.80
2018-02-10T01:37:12.436Z,22.37
2018-02-10T01:39:40.683Z,21.33
2018-02-10T01:42:08.157Z,20.47
2018-02-10T01:44:35.626Z,22.33
2018-02-10T01:47:03.862Z,21.00
2018-02-10T01:49:31.346Z,22.17
2018-02-10T01:51:58.831Z,21.70
2018-02-10T01:54:27.075Z,21.37
2018-02-10T01:56:54.547Z,20.50
2018-02-10T01:59:22.805Z,23.63
2018-02-10T02:01:50.262Z,23.37
2018-02-10T02:04:17.736Z,20.47
2018-02-10T02:06:45.970Z,25.70
2018-02-10T02:09:13.449Z,22.33
2018-02-10T02:11:40.924Z,24.80
2018-02-10T02:14:08.411Z,21.73
2018-02-10T02:16:35.883Z,21.77
2018-02-10T02:19:03.382Z,23.37
2018-02-10T02:21:30.847Z,23.60
2018-02-10T02:23:59.106Z,22.40
2018-02-10T02:26:26.579Z,21.57
2018-02-10T02:28:54.063Z,24.30
2018-02-10T02:31:22.300Z,21.83
2018-02-10T02:33:49.775Z,22.37
2018-02-10T02:36:17.242Z,22.10
2018-02-10T02:38:44.731Z,24.07
2018-02-10T02:41:12.206Z,21.77
2018-02-10T02:43:39.688Z,25.20
2018-02-10T02:46:07.168Z,23.10
2018-02-10T02:48:34.663Z,21.40
2018-02-10T02:51:02.134Z,20.97
2018-02-10T02:53:29.637Z,21.97
2018-02-10T02:55:57.110Z,22.50
2018-02-10T02:58:25.373Z,22.30
2018-02-10T03:00:52.830Z,22.60
2018-02-10T03:03:20.322Z,20.03
2018-02-10T03:05:48.549Z,20.93
2018-02-10T03:08:16.030Z,20.23
2018-02-10T03:10:43.511Z,20.23
2018-02-10T03:13:11.771Z,22.77
2018-02-10T03:15:39.268Z,23.70
2018-02-10T03:18:06.757Z,21.50
2018-02-10T03:20:34.239Z,22.23
2018-02-10T03:23:01.735Z,23.80
2018-02-10T03:25:29.627Z,23.90
2018-02-10T03:27:57.103Z,20.57
2018-02-10T03:30:24.589Z,20.23
2018-02-10T03:32:52.060Z,20.97
2018-02-10T03:35:20.335Z,22.23
2018-02-10T03:37:48.571Z,21.20
2018-02-10T03:40:16.088Z,22.50
2018-02-10T03:42:43.528Z,22.63
2018-02-10T03:45:11.778Z,22.93
2018-02-10T03:47:39.274Z,22.33
2018-02-10T03:50:07.529Z,20.17
2018-02-10T03:52:35.108Z,24.20
2018-02-10T03:55:03.364Z,22.00
2018-02-10T03:57:30.830Z,22.20
2018-02-10T03:59:59.088Z,22.30
2018-02-10T04:02:26.563Z,21.60
2018-02-10T04:04:54.815Z,23.70
2018-02-10T04:07:22.289Z,21.07
2018-02-10T04:09:49.770Z,20.67
2018-02-10T04:12:17.243Z,23.13
2018-02-10T04:14:44.742Z,23.73
2018-02-10T04:17:12.214Z,23.47
2018-02-10T04:19:39.691Z,21.23
2018-02-10T04:22:07.930Z,21.43
2018-02-10T04:24:35.430Z,23.00
2018-02-10T04:27:03.663Z,23.60
2018-02-10T04:29:31.148Z,23.73
2018-02-10T04:31:58.627Z,23.43
2018-02-10T04:34:26.895Z,22.77
2018-02-10T04:36:55.139Z,24.67
2018-02-10T04:39:22.618Z,24.80
2018-02-10T04:41:50.867Z,21.17
2018-02-10T04:44:18.522Z,23.90
2018-02-10T04:46:46.010Z,24.03
2018-02-10T04:49:13.491Z,23.00
2018-02-10T04:51:41.768Z,22.20
2018-02-10T04:54:10.015Z,22.23
2018-02-10T04:56:37.485Z,24.23
2018-02-10T04:59:04.967Z,27.57
2018-02-10T05:01:32.452Z,26.00
2018-02-10T05:03:59.934Z,28.10
2018-02-10T05:06:27.409Z,25.57
2018-02-10T05:08:54.891Z,21.67
2018-02-10T05:11:23.144Z,24.43
2018-02-10T05:13:50.622Z,25.20
2018-02-10T05:16:18.867Z,25.93
2018-02-10T05:18:46.342Z,25.73
2018-02-10T05:21:13.810Z,23.57
2018-02-10T05:23:41.289Z,27.77
2018-02-10T05:26:08.775Z,24.70
2018-02-10T05:28:36.251Z,24.93
2018-02-10T05:31:03.740Z,22.63
2018-02-10T05:33:31.207Z,25.67
2018-02-10T05:35:59.458Z,24.60
2018-02-10T05:38:26.935Z,24.00
2018-02-10T05:40:55.184Z,26.87
2018-02-10T05:43:22.655Z,25.83
2018-02-10T05:45:50.151Z,27.20
2018-02-10T05:48:17.624Z,27.23
2018-02-10T05:50:45.114Z,25.47
2018-02-10T05:53:13.363Z,25.37
2018-02-10T05:55:40.859Z,29.23
2018-02-10T05:58:08.330Z,28.60
2018-02-10T06:00:35.816Z,26.57
2018-02-10T06:03:03.294Z,24.93
2018-02-10T06:05:30.783Z,25.67
2018-02-10T06:07:58.267Z,26.77
2018-02-10T06:10:26.514Z,25.07
2018-02-10T06:12:53.990Z,24.90
2018-02-10T06:15:21.490Z,24.47
2018-02-10T06:17:48.967Z,21.47
2018-02-10T06:20:16.466Z,24.13
2018-02-10T06:22:43.948Z,23.97
2018-02-10T06:25:12.190Z,24.30
2018-02-10T06:27:39.664Z,23.33
2018-02-10T06:30:07.146Z,23.80
2018-02-10T06:32:35.383Z,22.33
2018-02-10T06:35:02.870Z,22.30
2018-02-10T06:37:31.102Z,20.67
2018-02-10T06:39:58.590Z,19.53
2018-02-10T06:42:26.063Z,21.80
2018-02-10T06:44:54.328Z,22.37
2018-02-10T06:47:21.807Z,21.40
2018-02-10T06:49:50.060Z,19.77
2018-02-10T06:52:17.535Z,22.43
2018-02-10T06:54:45.780Z,25.40
2018-02-10T06:57:13.262Z,24.40
2018-02-10T06:59:41.540Z,26.50
2018-02-10T07:02:09.050Z,21.97
2018-02-10T07:04:36.526Z,22.27
2018-02-10T07:07:04.005Z,22.17
2018-02-10T07:09:31.484Z,24.57
2018-02-10T07:11:59.731Z,25.20
2018-02-10T07:14:27.234Z,22.10
2018-02-10T07:16:55.429Z,23.30
2018-02-10T07:19:22.916Z,24.30
2018-02-10T07:21:50.394Z,24.77
2018-02-10T07:24:18.658Z,23.33
2018-02-10T07:26:46.151Z,24.20
2018-02-10T07:29:13.623Z,24.57
2018-02-10T07:31:41.109Z,26.97
2018-02-10T07:34:08.578Z,25.47
2018-02-10T07:36:36.061Z,26.07
2018-02-10T07:39:03.555Z,24.00
2018-02-10T07:41:31.038Z,25.20
2018-02-10T07:43:59.288Z,24.30
2018-02-10T07:46:26.781Z,27.27
2018-02-10T07:48:54.270Z,24.90
2018-02-10T07:51:21.750Z,23.33
2018-02-10T07:53:49.219Z,25.87
2018-02-10T07:56:16.712Z,23.57
2018-02-10T07:58:44.186Z,24.30
2018-02-10T08:01:11.666Z,27.37
2018-02-10T08:03:39.142Z,26.87
2018-02-10T08:06:06.633Z,27.30
2018-02-10T08:08:34.115Z,26.33
2018-02-10T08:13:57.807Z,24.50
2018-02-10T08:16:25.284Z,25.80
2018-02-10T08:18:52.755Z,25.80
2018-02-10T08:21:21.002Z,25.13
2018-02-10T08:23:48.475Z,25.80
2018-02-10T08:26:15.950Z,25.37
2018-02-10T08:28:44.190Z,25.83
2018-02-10T08:31:15.531Z,24.67
2018-02-10T08:33:43.777Z,24.83
2018-02-10T08:36:11.262Z,26.17
2018-02-10T08:38:39.468Z,24.30
2018-02-10T08:41:06.959Z,25.93
2018-02-10T08:43:34.439Z,26.07
2018-02-10T08:46:01.932Z,25.90
2018-02-10T08:48:29.415Z,24.13
2018-02-10T08:50:57.663Z,25.87
2018-02-10T08:53:25.138Z,26.47
2018-02-10T08:55:52.623Z,24.27
2018-02-10T08:58:20.086Z,25.77
2018-02-10T09:00:47.605Z,23.23
2018-02-10T09:03:15.071Z,23.70
2018-02-10T09:05:42.558Z,23.33
2018-02-10T09:08:10.923Z,23.10
2018-02-10T09:10:39.165Z,23.30
2018-02-10T09:13:06.643Z,22.77
2018-02-10T09:15:34.132Z,23.73
2018-02-10T09:18:01.611Z,23.70
2018-02-10T09:20:29.099Z,22.20
2018-02-10T09:22:56.607Z,23.57
2018-02-10T09:25:24.093Z,22.73
2018-02-10T09:27:51.563Z,23.13
2018-02-10T09:30:19.040Z,24.10
2018-02-10T09:32:46.516Z,24.13
2018-02-10T09:35:14.773Z,26.30
2018-02-10T09:37:42.241Z,25.73
2018-02-10T09:40:09.710Z,21.87
2018-02-10T09:42:37.975Z,22.33
2018-02-10T09:45:05.453Z,25.27
2018-02-10T09:47:33.696Z,23.13
2018-02-10T09:50:01.215Z,23.03
2018-02-10T09:52:29.424Z,23.40
2018-02-10T09:54:56.910Z,20.03
2018-02-10T09:57:25.154Z,20.10
2018-02-10T09:59:52.671Z,19.73
2018-02-10T10:02:20.151Z,20.97
2018-02-10T10:04:47.653Z,19.53
2018-02-10T10:07:15.135Z,18.30
2018-02-10T10:09:43.414Z,21.03
2018-02-10T10:12:11.662Z,18.70
2018-02-10T10:14:39.139Z,20.00
2018-02-10T10:17:07.402Z,19.83
2018-02-10T10:19:34.872Z,21.13
2018-02-10T10:22:03.143Z,19.67
2018-02-10T10:24:30.620Z,20.20
2018-02-10T10:26:58.868Z,20.90
2018-02-10T10:29:26.342Z,21.20
2018-02-10T10:31:54.594Z,21.93
2018-02-10T10:34:22.076Z,20.60
2018-02-10T10:36:50.334Z,20.97
2018-02-10T10:39:17.817Z,21.40
2018-02-10T10:41:46.054Z,23.40
2018-02-10T10:44:13.539Z,23.37
2018-02-10T10:46:41.019Z,24.60
2018-02-10T10:49:08.495Z,25.47
2018-02-10T10:51:35.996Z,24.53
2018-02-10T10:54:03.474Z,24.77
2018-02-10T10:56:30.959Z,25.27
2018-02-10T10:58:58.449Z,22.47
2018-02-10T11:01:25.954Z,24.60
2018-02-10T11:03:53.414Z,25.30
2018-02-10T11:06:22.497Z,25.40
2018-02-10T11:08:49.987Z,23.33
2018-02-10T11:11:18.301Z,25.33
2018-02-10T11:13:45.780Z,23.73
2018-02-10T11:16:13.255Z,23.90
2018-02-10T11:18:40.740Z,23.60
2018-02-10T11:21:08.251Z,22.30
2018-02-10T11:23:35.738Z,23.77
2018-02-10T11:26:03.987Z,26.67
2018-02-10T11:28:31.460Z,26.40
2018-02-10T11:30:58.943Z,26.17
2018-02-10T11:33:27.212Z,27.93
2018-02-10T11:35:55.467Z,28.57
2018-02-10T11:38:22.939Z,27.17
2018-02-10T11:40:50.475Z,25.63
2018-02-10T11:43:17.998Z,26.10
2018-02-10T11:45:45.505Z,28.57
2018-02-10T11:48:13.025Z,25.97
2018-02-10T11:50:40.504Z,23.70
2018-02-10T11:53:07.986Z,23.90
2018-02-10T11:55:35.472Z,25.00
2018-02-10T11:58:03.723Z,24.90
2018-02-10T12:00:31.201Z,27.40
2018-02-10T12:02:59.475Z,23.70
2018-02-10T12:05:27.786Z,25.30
2018-02-10T12:07:55.281Z,27.07
2018-02-10T12:10:22.794Z,25.70
2018-02-10T12:12:50.294Z,26.63
2018-02-10T12:15:17.786Z,27.47
2018-02-10T12:17:46.035Z,27.23
2018-02-10T12:20:13.524Z,26.37
2018-02-10T12:22:41.766Z,26.80
2018-02-10T12:25:09.273Z,27.50
2018-02-10T12:27:36.800Z,28.93
2018-02-10T12:30:04.275Z,26.93
2018-02-10T12:32:32.551Z,24.10
2018-02-10T12:35:00.825Z,26.73
2018-02-10T12:37:29.072Z,26.90
2018-02-10T12:39:56.573Z,27.23
2018-02-10T12:42:24.824Z,26.60
2018-02-10T12:44:52.292Z,25.80
2018-02-10T12:47:20.542Z,24.70
2018-02-10T12:49:48.030Z,24.70
2018-02-10T12:52:16.296Z,23.57
2018-02-10T12:54:43.776Z,22.90
2018-02-10T12:57:12.031Z,23.67
2018-02-10T12:59:40.195Z,23.80
2018-02-10T13:02:07.672Z,23.10
2018-02-10T13:04:35.911Z,24.93
2018-02-10T13:07:03.412Z,23.80
2018-02-10T13:09:31.696Z,26.13
2018-02-10T13:11:59.955Z,24.40
2018-02-10T13:14:27.432Z,24.67
2018-02-10T13:16:55.683Z,26.10
2018-02-10T13:19:23.942Z,25.77
2018-02-10T13:21:51.440Z,25.57
2018-02-10T13:24:19.687Z,27.53
2018-02-10T13:26:47.173Z,24.30
2018-02-10T13:29:15.422Z,25.23
2018-02-10T13:31:42.911Z,23.80
2018-02-10T13:34:11.163Z,28.00
2018-02-10T13:36:38.712Z,26.20
2018-02-10T13:39:06.175Z,24.73
2018-02-10T13:41:33.667Z,25.97
2018-02-10T13:44:01.918Z,25.40
2018-02-10T13:46:29.399Z,25.10
2018-02-10T13:48:57.642Z,25.70
2018-02-10T13:51:25.203Z,26.60
2018-02-10T13:53:52.691Z,24.47
2018-02-10T13:56:20.935Z,25.37
2018-02-10T13:58:48.495Z,24.27
2018-02-10T14:01:15.975Z,23.70
2018-02-10T14:03:44.309Z,24.60
2018-02-10T14:06:11.814Z,29.93
2018-02-10T14:08:40.075Z,24.70
2018-02-10T14:11:07.551Z,25.50
2018-02-10T14:13:35.850Z,25.50
2018-02-10T14:16:03.327Z,26.50
2018-02-10T14:18:30.820Z,23.80
2018-02-10T14:20:58.302Z,27.30
2018-02-10T14:23:26.567Z,23.47
2018-02-10T14:25:54.039Z,25.67
2018-02-10T14:28:22.288Z,25.03
2018-02-10T14:30:49.759Z,25.27
2018-02-10T14:33:17.261Z,25.77
2018-02-10T14:35:44.766Z,26.03
2018-02-10T14:38:12.254Z,28.10
2018-02-10T14:40:40.503Z,27.17
2018-02-10T14:43:07.994Z,27.53
2018-02-10T14:45:36.244Z,29.80
2018-02-10T14:48:03.793Z,26.73
2018-02-10T14:50:31.255Z,29.60
2018-02-10T14:52:58.761Z,25.43
2018-02-10T14:55:26.237Z,25.80
2018-02-10T14:57:53.726Z,27.60
2018-02-10T15:00:21.186Z,27.53
2018-02-10T15:02:48.666Z,29.03
2018-02-10T15:05:16.135Z,29.73
2018-02-10T15:07:45.450Z,27.77
2018-02-10T15:10:13.700Z,29.43
2018-02-10T15:12:41.191Z,32.47
2018-02-10T15:15:08.668Z,31.73
2018-02-10T15:17:36.166Z,31.27
2018-02-10T15:20:03.634Z,32.00
2018-02-10T15:22:31.114Z,31.93
2018-02-10T15:24:59.352Z,35.00
2018-02-10T15:27:26.855Z,37.40
2018-02-10T15:30:06.298Z,39.47
2018-02-10T15:32:45.671Z,35.57
2018-02-10T15:35:13.240Z,36.40
2018-02-10T15:37:40.755Z,31.47
2018-02-10T15:40:08.262Z,32.53
2018-02-10T15:42:35.702Z,32.50
2018-02-10T15:45:03.189Z,33.13
2018-02-10T15:47:30.684Z,34.30
2018-02-10T15:49:58.915Z,32.03
2018-02-10T15:52:26.398Z,31.90
2018-02-10T15:54:54.640Z,29.70
2018-02-10T15:57:22.130Z,27.70
2018-02-10T15:59:49.611Z,26.70
2018-02-10T16:02:17.094Z,28.33
2018-02-10T16:04:44.571Z,30.60
2018-02-10T16:07:12.056Z,29.30
2018-02-10T16:09:39.685Z,28.70
2018-02-10T16:12:07.086Z,30.40
2018-02-10T16:14:35.376Z,27.50
2018-02-10T16:17:03.643Z,29.10
2018-02-10T16:19:31.334Z,27.83
2018-02-10T16:21:58.816Z,31.83
2018-02-10T16:24:26.327Z,29.53
2018-02-10T16:26:53.782Z,28.20
2018-02-10T16:29:22.090Z,30.93
2018-02-10T16:31:49.594Z,29.30
2018-02-10T16:34:17.080Z,29.67
2018-02-10T16:36:45.323Z,29.23
2018-02-10T16:39:12.826Z,30.00
2018-02-10T16:41:40.302Z,28.97
2018-02-10T16:44:07.797Z,30.37
2018-02-10T16:46:35.320Z,30.20
2018-02-10T16:49:02.813Z,30.63
2018-02-10T16:51:30.287Z,30.30
2018-02-10T16:53:57.783Z,29.30
2018-02-10T16:56:25.300Z,30.77
2018-02-10T16:58:52.786Z,29.43
2018-02-10T17:01:21.024Z,31.80
2018-02-10T17:03:48.500Z,30.20
2018-02-10T17:06:15.986Z,29.53
2018-02-10T17:08:44.231Z,29.63
2018-02-10T17:11:11.711Z,28.80
2018-02-10T17:13:40.942Z,31.63
2018-02-10T17:16:08.424Z,27.70
2018-02-10T17:18:35.903Z,27.53
2018-02-10T17:21:03.380Z,28.10
2018-02-10T17:23:30.907Z,28.87
2018-02-10T17:25:59.198Z,31.27
2018-02-10T17:28:26.691Z,28.80
2018-02-10T17:30:54.937Z,29.60
2018-02-10T17:33:22.411Z,30.13
2018-02-10T17:35:50.666Z,30.77
2018-02-10T17:38:18.924Z,30.43
2018-02-10T17:40:46.383Z,28.67
2018-02-10T17:43:14.685Z,31.53
2018-02-10T17:45:42.147Z,28.90
2018-02-10T17:48:09.626Z,31.47
2018-02-10T17:50:37.883Z,31.23
2018-02-10T17:53:05.359Z,31.73
2018-02-10T17:55:33.627Z,30.37
2018-02-10T17:58:01.131Z,29.47
2018-02-10T18:00:28.604Z,30.30
2018-02-10T18:02:56.091Z,32.83
2018-02-10T18:05:23.570Z,29.13
2018-02-10T18:07:51.854Z,28.50
2018-02-10T18:10:19.351Z,29.93
2018-02-10T18:12:46.826Z,27.73
2018-02-10T18:15:14.314Z,30.60
2018-02-10T18:17:42.563Z,30.00
2018-02-10T18:20:10.843Z,29.37
2018-02-10T18:22:38.328Z,30.43
2018-02-10T18:25:06.592Z,28.33
2018-02-10T18:27:34.067Z,28.13
2018-02-10T18:30:01.567Z,28.47
2018-02-10T18:32:29.052Z,31.57
2018-02-10T18:34:56.563Z,27.47
2018-02-10T18:37:24.147Z,28.60
2018-02-10T18:39:51.627Z,28.83
2018-02-10T18:42:19.866Z,28.27
2018-02-10T18:44:47.348Z,28.50
2018-02-10T18:47:14.821Z,31.33
2018-02-10T18:49:42.321Z,30.83
2018-02-10T18:52:10.595Z,29.70
2018-02-10T18:54:38.894Z,29.40
2018-02-10T18:57:06.377Z,28.00
2018-02-10T18:59:33.845Z,28.67
2018-02-10T19:02:01.314Z,29.43
2018-02-10T19:04:28.808Z,29.57
2018-02-10T19:06:57.071Z,28.67
2018-02-10T19:09:26.114Z,29.67
2018-02-10T19:11:53.574Z,27.57
2018-02-10T19:14:21.055Z,27.80
2018-02-10T19:16:48.547Z,25.80
2018-02-10T19:19:17.242Z,29.47
2018-02-10T19:21:45.394Z,26.70
2018-02-10T19:24:12.874Z,25.57
2018-02-10T19:26:40.400Z,28.57
2018-02-10T19:29:07.891Z,26.13
2018-02-10T19:31:35.784Z,26.50
2018-02-10T19:34:03.265Z,25.77
2018-02-10T19:36:30.759Z,27.07
2018-02-10T19:38:58.232Z,26.73
2018-02-10T19:41:26.480Z,24.17
2018-02-10T19:43:53.990Z,24.27
2018-02-10T19:46:21.467Z,25.90
2018-02-10T19:48:48.987Z,25.70
2018-02-10T19:51:16.479Z,24.60
2018-02-10T19:53:43.980Z,23.67
2018-02-10T19:56:12.244Z,23.13
2018-02-10T19:58:39.771Z,24.63
2018-02-10T20:01:07.976Z,22.90
2018-02-10T20:03:35.455Z,23.30
2018-02-10T20:06:02.939Z,24.40
2018-02-10T20:08:31.175Z,23.67
2018-02-10T20:10:58.667Z,23.63
2018-02-10T20:13:26.947Z,24.10
2018-02-10T20:15:55.202Z,22.93
2018-02-10T20:18:22.682Z,23.20
2018-02-10T20:20:50.200Z,22.43
2018-02-10T20:23:17.742Z,23.47
2018-02-10T20:25:45.231Z,23.50
2018-02-10T20:28:12.723Z,23.93
2018-02-10T20:30:40.254Z,23.40
2018-02-10T20:33:07.732Z,23.43
2018-02-10T20:35:35.214Z,25.23
2018-02-10T20:38:02.691Z,23.53
2018-02-10T20:40:30.893Z,21.67
2018-02-10T20:42:58.367Z,23.33
2018-02-10T20:45:25.853Z,20.50
2018-02-10T20:47:53.324Z,22.90
2018-02-10T20:50:20.810Z,23.43
2018-02-10T20:52:48.327Z,22.60
2018-02-10T20:55:15.806Z,23.53
2018-02-10T20:57:43.286Z,23.60
2018-02-10T21:00:10.773Z,22.80
2018-02-10T21:02:39.036Z,22.20
2018-02-10T21:05:06.542Z,23.03
2018-02-10T21:07:34.024Z,22.90
2018-02-10T21:10:01.516Z,22.27
2018-02-10T21:12:28.998Z,21.80
2018-02-10T21:14:57.264Z,23.07
2018-02-10T21:17:25.455Z,22.20
2018-02-10T21:19:52.957Z,24.07
2018-02-10T21:22:20.448Z,21.20
2018-02-10T21:24:47.943Z,23.37
2018-02-10T21:27:15.467Z,21.20
2018-02-10T21:29:42.955Z,22.97
2018-02-10T21:32:10.431Z,23.13
2018-02-10T21:34:37.934Z,23.23
2018-02-10T21:37:05.404Z,22.23
2018-02-10T21:39:32.887Z,20.83
2018-02-10T21:42:00.368Z,25.23
2018-02-10T21:44:27.867Z,21.60
2018-02-10T21:46:55.371Z,23.07
2018-02-10T21:49:22.935Z,19.67
2018-02-10T21:51:50.411Z,21.37
2018-02-10T21:54:17.908Z,20.50
2018-02-10T21:56:45.395Z,22.30
2018-02-10T21:59:12.879Z,23.87
2018-02-10T22:01:41.358Z,20.37
2018-02-10T22:04:08.827Z,21.87
2018-02-10T22:06:36.315Z,23.23
2018-02-10T22:09:03.799Z,21.73
2018-02-10T22:11:32.060Z,23.57
2018-02-10T22:13:59.533Z,23.93
2018-02-10T22:16:27.780Z,22.30
2018-02-10T22:18:55.255Z,21.60
2018-02-10T22:21:22.742Z,20.20
2018-02-10T22:23:50.975Z,21.40
2018-02-10T22:26:18.481Z,20.70
2018-02-10T22:28:45.959Z,19.80
2018-02-10T22:31:13.448Z,19.70
2018-02-10T22:33:40.919Z,18.97
2018-02-10T22:36:08.614Z,17.80
2018-02-10T22:38:36.102Z,19.80
2018-02-10T22:41:03.606Z,17.97
2018-02-10T22:43:31.879Z,20.73
2018-02-10T22:45:59.363Z,19.60
2018-02-10T22:48:27.604Z,20.67
2018-02-10T22:50:55.546Z,19.87
2018-02-10T22:53:23.030Z,21.57
2018-02-10T22:55:50.522Z,18.73
2018-02-10T22:58:18.785Z,19.77
2018-02-10T23:00:46.275Z,20.33
2018-02-10T23:03:13.751Z,20.87
2018-02-10T23:05:41.252Z,20.77
2018-02-10T23:08:08.738Z,23.37
2018-02-10T23:10:36.990Z,22.93
2018-02-10T23:13:04.471Z,24.27
2018-02-10T23:15:31.966Z,23.13
2018-02-10T23:17:59.453Z,21.60
2018-02-10T23:20:26.955Z,22.57
2018-02-10T23:22:55.178Z,21.77
2018-02-10T23:25:22.685Z,21.30
2018-02-10T23:27:50.917Z,24.20
2018-02-10T23:30:18.402Z,22.10
2018-02-10T23:32:46.643Z,21.70
2018-02-10T23:35:14.131Z,20.93
2018-02-10T23:37:42.376Z,24.10
2018-02-10T23:40:09.879Z,23.57
2018-02-10T23:42:38.119Z,22.53
2018-02-10T23:45:05.598Z,22.03
2018-02-10T23:47:33.070Z,20.77
2018-02-10T23:50:01.320Z,23.00
2018-02-10T23:52:28.802Z,23.13
2018-02-10T23:54:57.394Z,22.70
2018-02-10T23:57:25.627Z,21.67
2018-02-10T23:59:53.107Z,21.80
